PWSweather.com
Personal Weather Stations
Station Observations
WESTON01
WestonSuperMareGB BS22 8RT

WestonSuperMareGB BS22 8RT

Lat: 51.351508, Lon: -2.933373

Elevation: 15

Station Type: Fine Offset WH1080

http://www.westonweather.co.uk

High Low Average
Temperature 68.3°F20.2°F 59.8°F15.4°F 63.4°F17.4°F
Dew Point 60.0°F15.6°F 51.7°F10.9°F 56.4°F13.6°F
Winds 16.4 mph -26.4 mph - 1.2 mph 1.9 mph 10.0 mph 16.1 mph
Wind Gusts 26.5 mph42.6 mph 4.2 mph6.8 mph 14.9 mph24.0 mph
Humidity 94% 62% 79%
Pressure 30.00 in1015.90 in 29.62 in1003.00 in -
Precipitation 0.48 in12.20 in - -
Hour Temp Dew Point Humidity Winds Wind Gusts Pressure Precip Precip Rate Daily Precip Total
12:00 AM 61.6°F16.4°C 59.6°F15.3°C 93% 6.4 mph SSW10.3 kmh SSW 9.5 mph15.3 kmh 29.65 in1004.1 mb 0.00 in0.0 mm 0.00 in0.0 mm 0.00 in0.0 mm
12:05 AM 61.6°F16.4°C 59.6°F15.3°C 93% 6.1 mph SSW9.8 kmh SSW 8.3 mph13.4 kmh 29.65 in1004.1 mb 0.00 in0.0 mm 0.00 in0.0 mm 0.00 in0.0 mm
12:10 AM 61.6°F16.4°C 59.6°F15.3°C 93% 5.8 mph S9.3 kmh S 8.3 mph13.4 kmh 29.65 in1004.1 mb 0.00 in0.0 mm 0.00 in0.0 mm 0.00 in0.0 mm
12:15 AM 61.6°F16.4°C 59.6°F15.3°C 93% 5.9 mph S9.5 kmh S 7.4 mph11.9 kmh 29.65 in1004.1 mb 0.00 in0.0 mm 0.00 in0.0 mm 0.00 in0.0 mm
12:20 AM 61.8°F16.6°C 59.7°F15.4°C 93% 5.6 mph SSW9.0 kmh SSW 6.5 mph10.5 kmh 29.65 in1004.1 mb 0.00 in0.0 mm 0.00 in0.0 mm 0.00 in0.0 mm
12:25 AM 61.8°F16.6°C 59.7°F15.4°C 93% 5.8 mph SSW9.3 kmh SSW 7.1 mph11.4 kmh 29.65 in1004.1 mb 0.00 in0.0 mm 0.00 in0.0 mm 0.00 in0.0 mm
12:30 AM 61.8°F16.6°C 59.7°F15.4°C 93% 5.9 mph S9.5 kmh S 7.1 mph11.4 kmh 29.65 in1004.1 mb 0.00 in0.0 mm 0.00 in0.0 mm 0.00 in0.0 mm
12:35 AM 61.8°F16.6°C 59.7°F15.4°C 93% 5.9 mph SSW9.5 kmh SSW 8.3 mph13.4 kmh 29.65 in1004.1 mb 0.00 in0.0 mm 0.00 in0.0 mm 0.00 in0.0 mm
12:40 AM 61.8°F16.6°C 60.0°F15.6°C 94% 5.6 mph SSW9.0 kmh SSW 8.3 mph13.4 kmh 29.65 in1004.1 mb 0.00 in0.0 mm 0.00 in0.0 mm 0.00 in0.0 mm
12:45 AM 61.8°F16.6°C 59.7°F15.4°C 93% 5.6 mph SSW9.0 kmh SSW 7.1 mph11.4 kmh 29.65 in1004.1 mb 0.00 in0.0 mm 0.00 in0.0 mm 0.00 in0.0 mm
12:50 AM 61.8°F16.6°C 59.7°F15.4°C 93% 5.4 mph SW8.7 kmh SW 7.1 mph11.4 kmh 29.65 in1004.1 mb 0.00 in0.0 mm 0.00 in0.0 mm 0.00 in0.0 mm
12:55 AM 61.8°F16.6°C 60.0°F15.6°C 94% 6.1 mph SSW9.8 kmh SSW 8.6 mph13.8 kmh 29.65 in1004.1 mb 0.00 in0.0 mm 0.00 in0.0 mm 0.00 in0.0 mm
01:00 AM 61.8°F16.6°C 60.0°F15.6°C 94% 6.6 mph SSW10.6 kmh SSW 8.6 mph13.8 kmh 29.65 in1004.1 mb 0.00 in0.0 mm 0.00 in0.0 mm 0.00 in0.0 mm
01:05 AM 61.8°F16.6°C 60.0°F15.6°C 94% 6.7 mph SSW10.8 kmh SSW 8.6 mph13.8 kmh 29.65 in1004.1 mb 0.00 in0.0 mm 0.00 in0.0 mm 0.00 in0.0 mm
01:10 AM 61.8°F16.6°C 60.0°F15.6°C 94% 6.3 mph SSW10.1 kmh SSW 8.3 mph13.4 kmh 29.65 in1004.1 mb 0.00 in0.0 mm 0.00 in0.0 mm 0.00 in0.0 mm
01:15 AM 61.8°F16.6°C 59.7°F15.4°C 93% 7.1 mph S11.4 kmh S 13.4 mph21.6 kmh 29.65 in1004.1 mb 0.00 in0.0 mm 0.00 in0.0 mm 0.00 in0.0 mm
01:20 AM 61.8°F16.6°C 59.7°F15.4°C 93% 7.2 mph S11.6 kmh S 13.4 mph21.6 kmh 29.65 in1004.1 mb 0.00 in0.0 mm 0.00 in0.0 mm 0.00 in0.0 mm
01:25 AM 61.8°F16.6°C 60.0°F15.6°C 94% 7.3 mph SSW11.7 kmh SSW 8.9 mph14.3 kmh 29.65 in1004.1 mb 0.00 in0.0 mm 0.00 in0.0 mm 0.00 in0.0 mm
01:30 AM 61.8°F16.6°C 60.0°F15.6°C 94% 7.5 mph SSW12.1 kmh SSW 8.3 mph13.4 kmh 29.62 in1003.0 mb 0.00 in0.0 mm 0.00 in0.0 mm 0.00 in0.0 mm
01:35 AM 61.8°F16.6°C 60.0°F15.6°C 94% 7.1 mph SSW11.4 kmh SSW 8.3 mph13.4 kmh 29.62 in1003.0 mb 0.00 in0.0 mm 0.00 in0.0 mm 0.00 in0.0 mm
01:40 AM 61.8°F16.6°C 60.0°F15.6°C 94% 6.3 mph S10.1 kmh S 8.3 mph13.4 kmh 29.62 in1003.0 mb 0.00 in0.0 mm 0.00 in0.0 mm 0.00 in0.0 mm
01:45 AM 61.8°F16.6°C 60.0°F15.6°C 94% 6.6 mph SW10.6 kmh SW 10.4 mph16.7 kmh 29.62 in1003.0 mb 0.00 in0.0 mm 0.00 in0.0 mm 0.00 in0.0 mm
01:50 AM 61.8°F16.6°C 60.0°F15.6°C 94% 7.3 mph SSW11.7 kmh SSW 10.4 mph16.7 kmh 29.62 in1003.0 mb 0.00 in0.0 mm 0.00 in0.0 mm 0.00 in0.0 mm
01:55 AM 61.8°F16.6°C 59.7°F15.4°C 93% 7.6 mph SSW12.2 kmh SSW 14.0 mph22.5 kmh 29.62 in1003.0 mb 0.00 in0.0 mm 0.00 in0.0 mm 0.00 in0.0 mm
02:00 AM 61.8°F16.6°C 59.7°F15.4°C 93% 8.3 mph SSW13.4 kmh SSW 14.3 mph23.0 kmh 29.62 in1003.0 mb 0.00 in0.0 mm 0.00 in0.0 mm 0.00 in0.0 mm
02:05 AM 61.8°F16.6°C 59.7°F15.4°C 93% 8.0 mph S12.9 kmh S 14.3 mph23.0 kmh 29.62 in1003.0 mb 0.00 in0.0 mm 0.00 in0.0 mm 0.00 in0.0 mm
02:10 AM 61.8°F16.6°C 59.7°F15.4°C 93% 7.7 mph SSW12.4 kmh SSW 11.6 mph18.7 kmh 29.62 in1003.0 mb 0.00 in0.0 mm 0.00 in0.0 mm 0.00 in0.0 mm
02:15 AM 61.8°F16.6°C 59.7°F15.4°C 93% 7.0 mph SSW11.3 kmh SSW 11.6 mph18.7 kmh 29.62 in1003.0 mb 0.00 in0.0 mm 0.00 in0.0 mm 0.00 in0.0 mm
02:20 AM 61.8°F16.6°C 59.7°F15.4°C 93% 6.2 mph SSW10.0 kmh SSW 7.4 mph11.9 kmh 29.62 in1003.0 mb 0.00 in0.0 mm 0.00 in0.0 mm 0.00 in0.0 mm
02:25 AM 61.8°F16.6°C 59.7°F15.4°C 93% 5.4 mph S8.7 kmh S 7.7 mph12.4 kmh 29.62 in1003.0 mb 0.00 in0.0 mm 0.00 in0.0 mm 0.00 in0.0 mm
02:30 AM 61.8°F16.6°C 59.7°F15.4°C 93% 6.3 mph SSW10.1 kmh SSW 10.4 mph16.7 kmh 29.62 in1003.0 mb 0.00 in0.0 mm 0.00 in0.0 mm 0.00 in0.0 mm
02:35 AM 61.8°F16.6°C 59.7°F15.4°C 93% 6.9 mph SSW11.1 kmh SSW 10.4 mph16.7 kmh 29.62 in1003.0 mb 0.04 in1.0 mm 0.48 in12.2 mm 0.04 in1.0 mm
02:40 AM 61.8°F16.6°C 59.7°F15.4°C 93% 5.7 mph SW9.2 kmh SW 8.6 mph13.8 kmh 29.62 in1003.0 mb 0.04 in1.0 mm 0.00 in0.0 mm 0.04 in1.0 mm
02:45 AM 61.6°F16.4°C 59.6°F15.3°C 93% 5.1 mph SW8.2 kmh SW 10.1 mph16.3 kmh 29.62 in1003.0 mb 0.04 in1.0 mm 0.00 in0.0 mm 0.04 in1.0 mm
02:50 AM 61.6°F16.4°C 59.9°F15.5°C 94% 5.2 mph SW8.4 kmh SW 10.1 mph16.3 kmh 29.62 in1003.0 mb 0.04 in1.0 mm 0.00 in0.0 mm 0.04 in1.0 mm
02:55 AM 61.6°F16.4°C 59.9°F15.5°C 94% 4.5 mph SSW7.2 kmh SSW 8.0 mph12.9 kmh 29.62 in1003.0 mb 0.04 in1.0 mm 0.00 in0.0 mm 0.04 in1.0 mm
03:00 AM 61.6°F16.4°C 59.9°F15.5°C 94% 4.4 mph SW7.1 kmh SW 6.5 mph10.5 kmh 29.62 in1003.0 mb 0.04 in1.0 mm 0.00 in0.0 mm 0.04 in1.0 mm
03:05 AM 61.6°F16.4°C 59.9°F15.5°C 94% 5.6 mph SW9.0 kmh SW 8.9 mph14.3 kmh 29.62 in1003.0 mb 0.04 in1.0 mm 0.00 in0.0 mm 0.04 in1.0 mm
03:10 AM 61.4°F16.3°C 59.7°F15.4°C 94% 5.8 mph SW9.3 kmh SW 8.9 mph14.3 kmh 29.62 in1003.0 mb 0.04 in1.0 mm 0.00 in0.0 mm 0.04 in1.0 mm
03:15 AM 61.4°F16.3°C 59.7°F15.4°C 94% 5.4 mph SSW8.7 kmh SSW 10.1 mph16.3 kmh 29.62 in1003.0 mb 0.04 in1.0 mm 0.00 in0.0 mm 0.04 in1.0 mm
03:20 AM 61.4°F16.3°C 59.7°F15.4°C 94% 5.9 mph SSW9.5 kmh SSW 10.1 mph16.3 kmh 29.62 in1003.0 mb 0.04 in1.0 mm 0.00 in0.0 mm 0.04 in1.0 mm
03:25 AM 61.4°F16.3°C 59.7°F15.4°C 94% 6.2 mph SW10.0 kmh SW 8.3 mph13.4 kmh 29.62 in1003.0 mb 0.04 in1.0 mm 0.00 in0.0 mm 0.04 in1.0 mm
03:30 AM 61.4°F16.3°C 59.7°F15.4°C 94% 5.5 mph SW8.9 kmh SW 8.3 mph13.4 kmh 29.62 in1003.0 mb 0.04 in1.0 mm 0.00 in0.0 mm 0.04 in1.0 mm
03:35 AM 61.3°F16.3°C 59.5°F15.3°C 94% 4.1 mph SW6.6 kmh SW 6.5 mph10.5 kmh 29.62 in1003.0 mb 0.00 in0.0 mm 0.00 in0.0 mm 0.04 in1.0 mm
03:40 AM 61.1°F16.2°C 59.3°F15.2°C 94% 3.8 mph SW6.1 kmh SW 5.4 mph8.7 kmh 29.62 in1003.0 mb 0.00 in0.0 mm 0.00 in0.0 mm 0.04 in1.0 mm
03:45 AM 60.9°F16.1°C 59.2°F15.1°C 94% 3.8 mph SW6.1 kmh SW 5.4 mph8.7 kmh 29.62 in1003.0 mb 0.00 in0.0 mm 0.00 in0.0 mm 0.04 in1.0 mm
03:50 AM 60.7°F15.9°C 59.0°F15.0°C 94% 3.6 mph SW5.8 kmh SW 5.1 mph8.2 kmh 29.62 in1003.0 mb 0.00 in0.0 mm 0.00 in0.0 mm 0.04 in1.0 mm
03:55 AM 60.7°F15.9°C 59.0°F15.0°C 94% 3.3 mph SW5.3 kmh SW 6.2 mph10.0 kmh 29.62 in1003.0 mb 0.00 in0.0 mm 0.00 in0.0 mm 0.04 in1.0 mm
04:00 AM 60.5°F15.8°C 58.8°F14.9°C 94% 3.0 mph SW4.8 kmh SW 6.2 mph10.0 kmh 29.62 in1003.0 mb 0.00 in0.0 mm 0.00 in0.0 mm 0.04 in1.0 mm
04:05 AM 60.3°F15.7°C 58.3°F14.6°C 93% 1.5 mph SSW2.4 kmh SSW 5.1 mph8.2 kmh 29.62 in1003.0 mb 0.00 in0.0 mm 0.00 in0.0 mm 0.04 in1.0 mm
04:10 AM 60.2°F15.7°C 58.1°F14.5°C 93% 1.2 mph SSW1.9 kmh SSW 4.2 mph6.8 kmh 29.62 in1003.0 mb 0.00 in0.0 mm 0.00 in0.0 mm 0.04 in1.0 mm
04:15 AM 60.2°F15.7°C 58.4°F14.7°C 94% 1.3 mph SSW2.1 kmh SSW 4.2 mph6.8 kmh 29.62 in1003.0 mb 0.00 in0.0 mm 0.00 in0.0 mm 0.04 in1.0 mm
04:20 AM 60.2°F15.7°C 58.4°F14.7°C 94% 2.4 mph SW3.9 kmh SW 8.0 mph12.9 kmh 29.62 in1003.0 mb 0.00 in0.0 mm 0.00 in0.0 mm 0.04 in1.0 mm
04:25 AM 60.2°F15.7°C 58.4°F14.7°C 94% 4.2 mph SW6.8 kmh SW 8.0 mph12.9 kmh 29.62 in1003.0 mb 0.00 in0.0 mm 0.00 in0.0 mm 0.04 in1.0 mm
04:35 AM 60.2°F15.7°C 58.4°F14.7°C 94% 4.5 mph WSW7.2 kmh WSW 9.0 mph14.5 kmh 29.62 in1003.0 mb 0.00 in0.0 mm 0.00 in0.0 mm 0.04 in1.0 mm
04:40 AM 60.2°F15.7°C 58.1°F14.5°C 93% 3.8 mph SW6.1 kmh SW 8.3 mph13.4 kmh 29.62 in1003.0 mb 0.00 in0.0 mm 0.00 in0.0 mm 0.04 in1.0 mm
04:45 AM 60.3°F15.7°C 58.3°F14.6°C 93% 4.3 mph SW6.9 kmh SW 8.3 mph13.4 kmh 29.62 in1003.0 mb 0.00 in0.0 mm 0.00 in0.0 mm 0.04 in1.0 mm
04:50 AM 60.3°F15.7°C 58.3°F14.6°C 93% 4.7 mph WSW7.6 kmh WSW 8.3 mph13.4 kmh 29.62 in1003.0 mb 0.00 in0.0 mm 0.00 in0.0 mm 0.04 in1.0 mm
04:55 AM 60.3°F15.7°C 58.3°F14.6°C 93% 4.2 mph WSW6.8 kmh WSW 6.5 mph10.5 kmh 29.62 in1003.0 mb 0.00 in0.0 mm 0.00 in0.0 mm 0.04 in1.0 mm
05:00 AM 60.3°F15.7°C 58.3°F14.6°C 93% 3.7 mph SW6.0 kmh SW 5.4 mph8.7 kmh 29.62 in1003.0 mb 0.00 in0.0 mm 0.00 in0.0 mm 0.04 in1.0 mm
05:05 AM 60.5°F15.8°C 58.5°F14.7°C 93% 3.4 mph SW5.5 kmh SW 4.5 mph7.2 kmh 29.62 in1003.0 mb 0.00 in0.0 mm 0.00 in0.0 mm 0.04 in1.0 mm
05:10 AM 60.5°F15.8°C 58.5°F14.7°C 93% 4.0 mph WSW6.4 kmh WSW 7.4 mph11.9 kmh 29.62 in1003.0 mb 0.00 in0.0 mm 0.00 in0.0 mm 0.04 in1.0 mm
05:15 AM 60.5°F15.8°C 58.5°F14.7°C 93% 4.2 mph WSW6.8 kmh WSW 7.4 mph11.9 kmh 29.62 in1003.0 mb 0.00 in0.0 mm 0.00 in0.0 mm 0.04 in1.0 mm
05:20 AM 60.5°F15.8°C 58.5°F14.7°C 93% 3.8 mph WSW6.1 kmh WSW 6.2 mph10.0 kmh 29.62 in1003.0 mb 0.00 in0.0 mm 0.00 in0.0 mm 0.04 in1.0 mm
05:25 AM 60.5°F15.8°C 58.5°F14.7°C 93% 5.5 mph WSW8.9 kmh WSW 13.4 mph21.6 kmh 29.62 in1003.0 mb 0.00 in0.0 mm 0.00 in0.0 mm 0.04 in1.0 mm
05:30 AM 60.5°F15.8°C 58.5°F14.7°C 93% 6.5 mph WSW10.5 kmh WSW 13.4 mph21.6 kmh 29.62 in1003.0 mb 0.00 in0.0 mm 0.00 in0.0 mm 0.04 in1.0 mm
05:35 AM 60.5°F15.8°C 58.5°F14.7°C 93% 6.0 mph WSW9.7 kmh WSW 8.3 mph13.4 kmh 29.62 in1003.0 mb 0.00 in0.0 mm 0.00 in0.0 mm 0.04 in1.0 mm
05:40 AM 60.7°F15.9°C 58.7°F14.8°C 93% 5.0 mph W8.0 kmh W 7.1 mph11.4 kmh 29.62 in1003.0 mb 0.00 in0.0 mm 0.00 in0.0 mm 0.04 in1.0 mm
05:45 AM 60.7°F15.9°C 58.7°F14.8°C 93% 4.7 mph W7.6 kmh W 8.6 mph13.8 kmh 29.62 in1003.0 mb 0.00 in0.0 mm 0.00 in0.0 mm 0.04 in1.0 mm
05:50 AM 60.9°F16.1°C 58.9°F14.9°C 93% 5.4 mph WSW8.7 kmh WSW 8.6 mph13.8 kmh 29.62 in1003.0 mb 0.00 in0.0 mm 0.00 in0.0 mm 0.04 in1.0 mm
05:55 AM 60.9°F16.1°C 58.9°F14.9°C 93% 7.1 mph WSW11.4 kmh WSW 17.3 mph27.8 kmh 29.62 in1003.0 mb 0.00 in0.0 mm 0.00 in0.0 mm 0.04 in1.0 mm
06:00 AM 60.7°F15.9°C 58.7°F14.8°C 93% 8.4 mph W13.5 kmh W 17.3 mph27.8 kmh 29.65 in1004.1 mb 0.00 in0.0 mm 0.00 in0.0 mm 0.04 in1.0 mm
06:05 AM 60.5°F15.8°C 58.5°F14.7°C 93% 9.0 mph W14.5 kmh W 17.3 mph27.8 kmh 29.65 in1004.1 mb 0.00 in0.0 mm 0.00 in0.0 mm 0.04 in1.0 mm
06:10 AM 60.3°F15.7°C 58.3°F14.6°C 93% 7.1 mph W11.4 kmh W 8.6 mph13.8 kmh 29.65 in1004.1 mb 0.00 in0.0 mm 0.00 in0.0 mm 0.04 in1.0 mm
06:15 AM 60.3°F15.7°C 58.3°F14.6°C 93% 5.9 mph WNW9.5 kmh WNW 8.9 mph14.3 kmh 29.65 in1004.1 mb 0.00 in0.0 mm 0.00 in0.0 mm 0.04 in1.0 mm
06:20 AM 60.3°F15.7°C 58.3°F14.6°C 93% 7.1 mph WSW11.4 kmh WSW 14.3 mph23.0 kmh 29.65 in1004.1 mb 0.00 in0.0 mm 0.00 in0.0 mm 0.04 in1.0 mm
06:25 AM 60.2°F15.7°C 58.1°F14.5°C 93% 11.5 mph WSW18.5 kmh WSW 17.3 mph27.8 kmh 29.65 in1004.1 mb 0.00 in0.0 mm 0.00 in0.0 mm 0.04 in1.0 mm
06:30 AM 60.2°F15.7°C 57.8°F14.3°C 92% 14.1 mph WSW22.7 kmh WSW 17.9 mph28.8 kmh 29.65 in1004.1 mb 0.00 in0.0 mm 0.00 in0.0 mm 0.04 in1.0 mm
06:35 AM 60.2°F15.7°C 57.8°F14.3°C 92% 11.9 mph W19.2 kmh W 17.9 mph28.8 kmh 29.65 in1004.1 mb 0.00 in0.0 mm 0.00 in0.0 mm 0.04 in1.0 mm
06:40 AM 60.2°F15.7°C 57.8°F14.3°C 92% 12.1 mph W19.5 kmh W 17.3 mph27.8 kmh 29.65 in1004.1 mb 0.00 in0.0 mm 0.00 in0.0 mm 0.04 in1.0 mm
06:45 AM 60.2°F15.7°C 57.8°F14.3°C 92% 12.5 mph W20.1 kmh W 17.3 mph27.8 kmh 29.65 in1004.1 mb 0.00 in0.0 mm 0.00 in0.0 mm 0.04 in1.0 mm
06:50 AM 60.2°F15.7°C 57.8°F14.3°C 92% 11.0 mph W17.7 kmh W 17.3 mph27.8 kmh 29.65 in1004.1 mb 0.00 in0.0 mm 0.00 in0.0 mm 0.04 in1.0 mm
06:55 AM 60.2°F15.7°C 57.8°F14.3°C 92% 12.9 mph WNW20.8 kmh WNW 17.3 mph27.8 kmh 29.65 in1004.1 mb 0.00 in0.0 mm 0.00 in0.0 mm 0.04 in1.0 mm
07:00 AM 60.3°F15.7°C 57.7°F14.3°C 91% 12.5 mph W20.1 kmh W 17.3 mph27.8 kmh 29.65 in1004.1 mb 0.00 in0.0 mm 0.00 in0.0 mm 0.04 in1.0 mm
07:05 AM 60.5°F15.8°C 57.9°F14.4°C 91% 10.4 mph W16.7 kmh W 14.3 mph23.0 kmh 29.65 in1004.1 mb 0.00 in0.0 mm 0.00 in0.0 mm 0.04 in1.0 mm
07:10 AM 60.7°F15.9°C 58.1°F14.5°C 91% 11.4 mph W18.3 kmh W 16.4 mph26.4 kmh 29.65 in1004.1 mb 0.00 in0.0 mm 0.00 in0.0 mm 0.04 in1.0 mm
07:15 AM 61.1°F16.2°C 58.4°F14.7°C 91% 15.6 mph W25.1 kmh W 26.5 mph42.6 kmh 29.68 in1005.1 mb 0.00 in0.0 mm 0.00 in0.0 mm 0.04 in1.0 mm
07:20 AM 61.1°F16.2°C 58.4°F14.7°C 91% 13.7 mph W22.0 kmh W 26.5 mph42.6 kmh 29.68 in1005.1 mb 0.00 in0.0 mm 0.00 in0.0 mm 0.04 in1.0 mm
07:25 AM 61.4°F16.3°C 58.5°F14.7°C 90% 11.8 mph W19.0 kmh W 26.5 mph42.6 kmh 29.68 in1005.1 mb 0.00 in0.0 mm 0.00 in0.0 mm 0.04 in1.0 mm
07:30 AM 61.6°F16.4°C 58.6°F14.8°C 90% 12.9 mph W20.8 kmh W 19.6 mph31.5 kmh 29.68 in1005.1 mb 0.00 in0.0 mm 0.00 in0.0 mm 0.04 in1.0 mm
07:35 AM 62.0°F16.7°C 58.7°F14.8°C 89% 13.5 mph W21.7 kmh W 19.6 mph31.5 kmh 29.68 in1005.1 mb 0.00 in0.0 mm 0.00 in0.0 mm 0.04 in1.0 mm
07:40 AM 62.2°F16.8°C 58.9°F14.9°C 89% 11.1 mph W17.9 kmh W 16.4 mph26.4 kmh 29.68 in1005.1 mb 0.00 in0.0 mm 0.00 in0.0 mm 0.04 in1.0 mm
07:45 AM 62.3°F16.8°C 58.7°F14.8°C 88% 10.5 mph WNW16.9 kmh WNW 17.3 mph27.8 kmh 29.68 in1005.1 mb 0.00 in0.0 mm 0.00 in0.0 mm 0.04 in1.0 mm
07:50 AM 62.5°F16.9°C 58.9°F14.9°C 88% 11.6 mph W18.7 kmh W 18.4 mph29.6 kmh 29.68 in1005.1 mb 0.00 in0.0 mm 0.00 in0.0 mm 0.04 in1.0 mm
07:55 AM 62.7°F17.1°C 58.8°F14.9°C 87% 13.5 mph WSW21.7 kmh WSW 18.4 mph29.6 kmh 29.68 in1005.1 mb 0.00 in0.0 mm 0.00 in0.0 mm 0.04 in1.0 mm
08:00 AM 63.0°F17.2°C 59.1°F15.1°C 87% 13.9 mph W22.4 kmh W 18.4 mph29.6 kmh 29.68 in1005.1 mb 0.00 in0.0 mm 0.00 in0.0 mm 0.04 in1.0 mm
08:05 AM 63.2°F17.3°C 59.0°F15.0°C 86% 12.5 mph W20.1 kmh W 18.7 mph30.1 kmh 29.68 in1005.1 mb 0.00 in0.0 mm 0.00 in0.0 mm 0.04 in1.0 mm
08:10 AM 63.6°F17.6°C 59.0°F15.0°C 85% 12.1 mph W19.5 kmh W 18.7 mph30.1 kmh 29.68 in1005.1 mb 0.00 in0.0 mm 0.00 in0.0 mm 0.04 in1.0 mm
08:15 AM 64.0°F17.8°C 59.3°F15.2°C 85% 12.9 mph WSW20.8 kmh WSW 17.3 mph27.8 kmh 29.68 in1005.1 mb 0.00 in0.0 mm 0.00 in0.0 mm 0.04 in1.0 mm
08:20 AM 64.3°F17.9°C 59.4°F15.2°C 84% 13.3 mph WSW21.4 kmh WSW 17.3 mph27.8 kmh 29.68 in1005.1 mb 0.00 in0.0 mm 0.00 in0.0 mm 0.04 in1.0 mm
08:25 AM 64.3°F17.9°C 59.0°F15.0°C 83% 14.0 mph W22.5 kmh W 20.5 mph33.0 kmh 29.68 in1005.1 mb 0.00 in0.0 mm 0.00 in0.0 mm 0.04 in1.0 mm
08:30 AM 64.1°F17.8°C 58.5°F14.7°C 82% 12.5 mph WSW20.1 kmh WSW 20.5 mph33.0 kmh 29.68 in1005.1 mb 0.00 in0.0 mm 0.00 in0.0 mm 0.04 in1.0 mm
08:35 AM 64.0°F17.8°C 58.3°F14.6°C 82% 10.3 mph W16.6 kmh W 13.7 mph22.0 kmh 29.68 in1005.1 mb 0.00 in0.0 mm 0.00 in0.0 mm 0.04 in1.0 mm
08:40 AM 64.0°F17.8°C 58.0°F14.4°C 81% 10.8 mph WSW17.4 kmh WSW 14.3 mph23.0 kmh 29.68 in1005.1 mb 0.00 in0.0 mm 0.00 in0.0 mm 0.04 in1.0 mm
08:45 AM 64.3°F17.9°C 58.4°F14.7°C 81% 12.3 mph W19.8 kmh W 14.3 mph23.0 kmh 29.68 in1005.1 mb 0.00 in0.0 mm 0.00 in0.0 mm 0.04 in1.0 mm
08:50 AM 64.7°F18.2°C 58.7°F14.8°C 81% 13.7 mph W22.0 kmh W 16.7 mph26.9 kmh 29.68 in1005.1 mb 0.00 in0.0 mm 0.00 in0.0 mm 0.04 in1.0 mm
08:55 AM 64.7°F18.2°C 58.7°F14.8°C 81% 14.0 mph W22.5 kmh W 20.5 mph33.0 kmh 29.68 in1005.1 mb 0.00 in0.0 mm 0.00 in0.0 mm 0.04 in1.0 mm
09:00 AM 65.0°F18.3°C 58.4°F14.7°C 79% 12.9 mph W20.8 kmh W 20.5 mph33.0 kmh 29.68 in1005.1 mb 0.00 in0.0 mm 0.00 in0.0 mm 0.04 in1.0 mm
09:05 AM 65.2°F18.4°C 58.5°F14.7°C 79% 11.4 mph W18.3 kmh W 14.6 mph23.5 kmh 29.68 in1005.1 mb 0.00 in0.0 mm 0.00 in0.0 mm 0.04 in1.0 mm
09:10 AM 65.4°F18.6°C 58.7°F14.8°C 79% 11.3 mph W18.2 kmh W 16.4 mph26.4 kmh 29.70 in1005.8 mb 0.00 in0.0 mm 0.00 in0.0 mm 0.04 in1.0 mm
09:15 AM 65.4°F18.6°C 58.3°F14.6°C 78% 13.0 mph W20.9 kmh W 20.5 mph33.0 kmh 29.70 in1005.8 mb 0.00 in0.0 mm 0.00 in0.0 mm 0.04 in1.0 mm
09:20 AM 65.4°F18.6°C 58.3°F14.6°C 78% 15.0 mph W24.1 kmh W 20.5 mph33.0 kmh 29.70 in1005.8 mb 0.00 in0.0 mm 0.00 in0.0 mm 0.04 in1.0 mm
09:25 AM 65.0°F18.3°C 58.0°F14.4°C 78% 13.0 mph W20.9 kmh W 17.6 mph28.3 kmh 29.70 in1005.8 mb 0.00 in0.0 mm 0.00 in0.0 mm 0.04 in1.0 mm
09:30 AM 64.8°F18.2°C 57.8°F14.3°C 78% 11.3 mph W18.2 kmh W 14.0 mph22.5 kmh 29.70 in1005.8 mb 0.00 in0.0 mm 0.00 in0.0 mm 0.04 in1.0 mm
09:35 AM 64.8°F18.2°C 57.8°F14.3°C 78% 11.0 mph W17.7 kmh W 17.0 mph27.4 kmh 29.70 in1005.8 mb 0.00 in0.0 mm 0.00 in0.0 mm 0.04 in1.0 mm
09:40 AM 65.0°F18.3°C 58.0°F14.4°C 78% 10.3 mph W16.6 kmh W 17.0 mph27.4 kmh 29.70 in1005.8 mb 0.00 in0.0 mm 0.00 in0.0 mm 0.04 in1.0 mm
09:45 AM 65.0°F18.3°C 58.0°F14.4°C 78% 9.4 mph W15.1 kmh W 16.1 mph25.9 kmh 29.70 in1005.8 mb 0.00 in0.0 mm 0.00 in0.0 mm 0.04 in1.0 mm
09:50 AM 65.0°F18.3°C 58.0°F14.4°C 78% 11.8 mph W19.0 kmh W 17.3 mph27.8 kmh 29.70 in1005.8 mb 0.00 in0.0 mm 0.00 in0.0 mm 0.04 in1.0 mm
09:55 AM 65.0°F18.3°C 58.0°F14.4°C 78% 13.2 mph WNW21.2 kmh WNW 17.3 mph27.8 kmh 29.70 in1005.8 mb 0.00 in0.0 mm 0.00 in0.0 mm 0.04 in1.0 mm
10:00 AM 65.2°F18.4°C 58.2°F14.6°C 78% 14.6 mph W23.5 kmh W 19.0 mph30.6 kmh 29.70 in1005.8 mb 0.00 in0.0 mm 0.00 in0.0 mm 0.04 in1.0 mm
10:05 AM 65.4°F18.6°C 58.0°F14.4°C 77% 14.6 mph WSW23.5 kmh WSW 19.0 mph30.6 kmh 29.70 in1005.8 mb 0.00 in0.0 mm 0.00 in0.0 mm 0.04 in1.0 mm
10:10 AM 65.2°F18.4°C 57.8°F14.3°C 77% 14.2 mph WSW22.9 kmh WSW 19.3 mph31.1 kmh 29.70 in1005.8 mb 0.00 in0.0 mm 0.00 in0.0 mm 0.04 in1.0 mm
10:15 AM 65.4°F18.6°C 58.0°F14.4°C 77% 13.7 mph WSW22.0 kmh WSW 19.3 mph31.1 kmh 29.70 in1005.8 mb 0.00 in0.0 mm 0.00 in0.0 mm 0.04 in1.0 mm
10:20 AM 65.2°F18.4°C 57.8°F14.3°C 77% 14.3 mph WSW23.0 kmh WSW 22.9 mph36.9 kmh 29.70 in1005.8 mb 0.00 in0.0 mm 0.00 in0.0 mm 0.04 in1.0 mm
10:25 AM 64.7°F18.2°C 57.7°F14.3°C 78% 14.7 mph WSW23.7 kmh WSW 22.9 mph36.9 kmh 29.70 in1005.8 mb 0.00 in0.0 mm 0.00 in0.0 mm 0.04 in1.0 mm
10:30 AM 64.7°F18.2°C 57.7°F14.3°C 78% 12.3 mph WSW19.8 kmh WSW 16.4 mph26.4 kmh 29.73 in1006.8 mb 0.00 in0.0 mm 0.00 in0.0 mm 0.04 in1.0 mm
10:35 AM 64.8°F18.2°C 57.8°F14.3°C 78% 11.7 mph W18.8 kmh W 19.6 mph31.5 kmh 29.73 in1006.8 mb 0.00 in0.0 mm 0.00 in0.0 mm 0.04 in1.0 mm
10:40 AM 64.7°F18.2°C 57.7°F14.3°C 78% 13.4 mph W21.6 kmh W 19.6 mph31.5 kmh 29.73 in1006.8 mb 0.00 in0.0 mm 0.00 in0.0 mm 0.04 in1.0 mm
10:45 AM 64.7°F18.2°C 57.7°F14.3°C 78% 13.9 mph W22.4 kmh W 21.4 mph34.4 kmh 29.73 in1006.8 mb 0.00 in0.0 mm 0.00 in0.0 mm 0.04 in1.0 mm
10:50 AM 65.0°F18.3°C 57.6°F14.2°C 77% 12.0 mph W19.3 kmh W 21.4 mph34.4 kmh 29.73 in1006.8 mb 0.00 in0.0 mm 0.00 in0.0 mm 0.04 in1.0 mm
10:55 AM 65.2°F18.4°C 57.8°F14.3°C 77% 11.8 mph W19.0 kmh W 21.4 mph34.4 kmh 29.73 in1006.8 mb 0.00 in0.0 mm 0.00 in0.0 mm 0.04 in1.0 mm
11:00 AM 65.0°F18.3°C 57.6°F14.2°C 77% 12.6 mph W20.3 kmh W 19.6 mph31.5 kmh 29.73 in1006.8 mb 0.00 in0.0 mm 0.00 in0.0 mm 0.04 in1.0 mm
11:05 AM 65.0°F18.3°C 57.6°F14.2°C 77% 12.4 mph W20.0 kmh W 19.6 mph31.5 kmh 29.73 in1006.8 mb 0.00 in0.0 mm 0.00 in0.0 mm 0.04 in1.0 mm
11:10 AM 64.7°F18.2°C 57.3°F14.1°C 77% 14.0 mph W22.5 kmh W 19.6 mph31.5 kmh 29.73 in1006.8 mb 0.00 in0.0 mm 0.00 in0.0 mm 0.04 in1.0 mm
11:15 AM 64.7°F18.2°C 57.3°F14.1°C 77% 14.0 mph WSW22.5 kmh WSW 18.4 mph29.6 kmh 29.73 in1006.8 mb 0.00 in0.0 mm 0.00 in0.0 mm 0.04 in1.0 mm
11:20 AM 64.3°F17.9°C 56.9°F13.8°C 77% 10.8 mph WSW17.4 kmh WSW 17.3 mph27.8 kmh 29.73 in1006.8 mb 0.00 in0.0 mm 0.00 in0.0 mm 0.04 in1.0 mm
11:25 AM 64.3°F17.9°C 56.9°F13.8°C 77% 11.5 mph W18.5 kmh W 22.9 mph36.9 kmh 29.73 in1006.8 mb 0.00 in0.0 mm 0.00 in0.0 mm 0.04 in1.0 mm
11:30 AM 64.7°F18.2°C 57.3°F14.1°C 77% 13.0 mph WNW20.9 kmh WNW 22.9 mph36.9 kmh 29.73 in1006.8 mb 0.00 in0.0 mm 0.00 in0.0 mm 0.04 in1.0 mm
11:35 AM 65.0°F18.3°C 57.3°F14.1°C 76% 13.3 mph W21.4 kmh W 17.0 mph27.4 kmh 29.73 in1006.8 mb 0.00 in0.0 mm 0.00 in0.0 mm 0.04 in1.0 mm
11:40 AM 64.8°F18.2°C 57.5°F14.2°C 77% 14.4 mph WSW23.2 kmh WSW 19.0 mph30.6 kmh 29.73 in1006.8 mb 0.00 in0.0 mm 0.00 in0.0 mm 0.04 in1.0 mm
11:45 AM 64.8°F18.2°C 57.5°F14.2°C 77% 15.2 mph WSW24.5 kmh WSW 20.5 mph33.0 kmh 29.76 in1007.8 mb 0.00 in0.0 mm 0.00 in0.0 mm 0.04 in1.0 mm
11:50 AM 65.4°F18.6°C 57.6°F14.2°C 76% 15.1 mph WSW24.3 kmh WSW 20.5 mph33.0 kmh 29.76 in1007.8 mb 0.00 in0.0 mm 0.00 in0.0 mm 0.04 in1.0 mm
11:55 AM 65.9°F18.8°C 58.1°F14.5°C 76% 13.2 mph W21.2 kmh W 20.2 mph32.5 kmh 29.76 in1007.8 mb 0.00 in0.0 mm 0.00 in0.0 mm 0.04 in1.0 mm
12:00 PM 66.1°F18.9°C 58.0°F14.4°C 75% 12.6 mph W20.3 kmh W 19.6 mph31.5 kmh 29.76 in1007.8 mb 0.00 in0.0 mm 0.00 in0.0 mm 0.04 in1.0 mm
12:05 PM 66.5°F19.2°C 57.9°F14.4°C 74% 14.3 mph WSW23.0 kmh WSW 20.2 mph32.5 kmh 29.76 in1007.8 mb 0.00 in0.0 mm 0.00 in0.0 mm 0.04 in1.0 mm
12:10 PM 66.7°F19.3°C 58.1°F14.5°C 74% 13.3 mph W21.4 kmh W 20.2 mph32.5 kmh 29.76 in1007.8 mb 0.00 in0.0 mm 0.00 in0.0 mm 0.04 in1.0 mm
12:15 PM 66.7°F19.3°C 57.7°F14.3°C 73% 12.2 mph W19.6 kmh W 20.2 mph32.5 kmh 29.76 in1007.8 mb 0.00 in0.0 mm 0.00 in0.0 mm 0.04 in1.0 mm
12:20 PM 66.8°F19.3°C 57.9°F14.4°C 73% 13.5 mph W21.7 kmh W 20.2 mph32.5 kmh 29.76 in1007.8 mb 0.00 in0.0 mm 0.00 in0.0 mm 0.04 in1.0 mm
12:25 PM 67.0°F19.4°C 57.7°F14.3°C 72% 13.2 mph W21.2 kmh W 17.0 mph27.4 kmh 29.76 in1007.8 mb 0.00 in0.0 mm 0.00 in0.0 mm 0.04 in1.0 mm
12:30 PM 67.0°F19.4°C 57.7°F14.3°C 72% 13.0 mph W20.9 kmh W 19.3 mph31.1 kmh 29.76 in1007.8 mb 0.00 in0.0 mm 0.00 in0.0 mm 0.04 in1.0 mm
12:35 PM 67.2°F19.6°C 57.9°F14.4°C 72% 12.9 mph WSW20.8 kmh WSW 19.3 mph31.1 kmh 29.76 in1007.8 mb 0.00 in0.0 mm 0.00 in0.0 mm 0.04 in1.0 mm
12:40 PM 67.4°F19.7°C 57.6°F14.2°C 71% 12.9 mph W20.8 kmh W 18.7 mph30.1 kmh 29.76 in1007.8 mb 0.00 in0.0 mm 0.00 in0.0 mm 0.04 in1.0 mm
12:45 PM 67.4°F19.7°C 57.6°F14.2°C 71% 14.0 mph WNW22.5 kmh WNW 19.6 mph31.5 kmh 29.76 in1007.8 mb 0.00 in0.0 mm 0.00 in0.0 mm 0.04 in1.0 mm
12:50 PM 67.4°F19.7°C 57.2°F14.0°C 70% 15.3 mph W24.6 kmh W 21.1 mph34.0 kmh 29.76 in1007.8 mb 0.00 in0.0 mm 0.00 in0.0 mm 0.04 in1.0 mm
12:55 PM 67.6°F19.8°C 57.8°F14.3°C 71% 15.6 mph WNW25.1 kmh WNW 21.1 mph34.0 kmh 29.76 in1007.8 mb 0.00 in0.0 mm 0.00 in0.0 mm 0.04 in1.0 mm
01:00 PM 68.3°F20.2°C 58.1°F14.5°C 70% 11.8 mph WNW19.0 kmh WNW 20.5 mph33.0 kmh 29.76 in1007.8 mb 0.00 in0.0 mm 0.00 in0.0 mm 0.04 in1.0 mm
01:05 PM 68.3°F20.2°C 58.1°F14.5°C 70% 11.1 mph W17.9 kmh W 19.6 mph31.5 kmh 29.76 in1007.8 mb 0.00 in0.0 mm 0.00 in0.0 mm 0.04 in1.0 mm
01:10 PM 67.9°F19.9°C 57.4°F14.1°C 69% 15.3 mph W24.6 kmh W 21.1 mph34.0 kmh 29.76 in1007.8 mb 0.00 in0.0 mm 0.00 in0.0 mm 0.04 in1.0 mm
01:15 PM 67.9°F19.9°C 57.4°F14.1°C 69% 16.4 mph W26.4 kmh W 21.1 mph34.0 kmh 29.79 in1008.8 mb 0.00 in0.0 mm 0.00 in0.0 mm 0.04 in1.0 mm
01:20 PM 68.1°F20.1°C 57.5°F14.2°C 69% 13.9 mph W22.4 kmh W 19.3 mph31.1 kmh 29.79 in1008.8 mb 0.00 in0.0 mm 0.00 in0.0 mm 0.04 in1.0 mm
01:25 PM 67.7°F19.8°C 57.2°F14.0°C 69% 13.6 mph NW21.9 kmh NW 20.2 mph32.5 kmh 29.79 in1008.8 mb 0.00 in0.0 mm 0.00 in0.0 mm 0.04 in1.0 mm
01:30 PM 67.7°F19.8°C 57.2°F14.0°C 69% 14.8 mph NW23.8 kmh NW 20.2 mph32.5 kmh 29.79 in1008.8 mb 0.00 in0.0 mm 0.00 in0.0 mm 0.04 in1.0 mm
01:35 PM 67.9°F19.9°C 57.0°F13.9°C 68% 12.0 mph WNW19.3 kmh WNW 17.0 mph27.4 kmh 29.79 in1008.8 mb 0.00 in0.0 mm 0.00 in0.0 mm 0.04 in1.0 mm
01:40 PM 67.7°F19.8°C 56.8°F13.8°C 68% 12.8 mph WNW20.6 kmh WNW 17.9 mph28.8 kmh 29.79 in1008.8 mb 0.00 in0.0 mm 0.00 in0.0 mm 0.04 in1.0 mm
01:45 PM 67.6°F19.8°C 56.6°F13.7°C 68% 13.7 mph NW22.0 kmh NW 17.9 mph28.8 kmh 29.79 in1008.8 mb 0.00 in0.0 mm 0.00 in0.0 mm 0.04 in1.0 mm
01:50 PM 67.7°F19.8°C 56.8°F13.8°C 68% 13.0 mph WNW20.9 kmh WNW 17.9 mph28.8 kmh 29.79 in1008.8 mb 0.00 in0.0 mm 0.00 in0.0 mm 0.04 in1.0 mm
01:55 PM 67.7°F19.8°C 56.8°F13.8°C 68% 11.1 mph W17.9 kmh W 16.4 mph26.4 kmh 29.79 in1008.8 mb 0.00 in0.0 mm 0.00 in0.0 mm 0.04 in1.0 mm
02:00 PM 68.3°F20.2°C 56.9°F13.8°C 67% 11.1 mph W17.9 kmh W 14.6 mph23.5 kmh 29.79 in1008.8 mb 0.00 in0.0 mm 0.00 in0.0 mm 0.04 in1.0 mm
02:05 PM 68.1°F20.1°C 56.7°F13.7°C 67% 13.4 mph W21.6 kmh W 19.6 mph31.5 kmh 29.79 in1008.8 mb 0.00 in0.0 mm 0.00 in0.0 mm 0.04 in1.0 mm
02:10 PM 67.9°F19.9°C 56.5°F13.6°C 67% 14.4 mph WNW23.2 kmh WNW 20.5 mph33.0 kmh 29.79 in1008.8 mb 0.00 in0.0 mm 0.00 in0.0 mm 0.04 in1.0 mm
02:15 PM 67.9°F19.9°C 56.5°F13.6°C 67% 13.6 mph W21.9 kmh W 20.5 mph33.0 kmh 29.79 in1008.8 mb 0.00 in0.0 mm 0.00 in0.0 mm 0.04 in1.0 mm
02:20 PM 67.7°F19.8°C 56.4°F13.6°C 67% 12.7 mph W20.4 kmh W 18.7 mph30.1 kmh 29.79 in1008.8 mb 0.00 in0.0 mm 0.00 in0.0 mm 0.04 in1.0 mm
02:25 PM 67.7°F19.8°C 56.4°F13.6°C 67% 12.3 mph W19.8 kmh W 17.9 mph28.8 kmh 29.79 in1008.8 mb 0.00 in0.0 mm 0.00 in0.0 mm 0.04 in1.0 mm
02:30 PM 68.1°F20.1°C 56.3°F13.5°C 66% 11.3 mph W18.2 kmh W 16.7 mph26.9 kmh 29.82 in1009.8 mb 0.00 in0.0 mm 0.00 in0.0 mm 0.04 in1.0 mm
02:35 PM 68.3°F20.2°C 56.5°F13.6°C 66% 11.3 mph W18.2 kmh W 18.7 mph30.1 kmh 29.82 in1009.8 mb 0.00 in0.0 mm 0.00 in0.0 mm 0.04 in1.0 mm
02:40 PM 67.9°F19.9°C 55.7°F13.2°C 65% 13.4 mph WNW21.6 kmh WNW 18.7 mph30.1 kmh 29.82 in1009.8 mb 0.00 in0.0 mm 0.00 in0.0 mm 0.04 in1.0 mm
02:45 PM 67.7°F19.8°C 55.5°F13.1°C 65% 14.3 mph NW23.0 kmh NW 17.3 mph27.8 kmh 29.82 in1009.8 mb 0.00 in0.0 mm 0.00 in0.0 mm 0.04 in1.0 mm
02:50 PM 67.6°F19.8°C 55.4°F13.0°C 65% 14.0 mph NW22.5 kmh NW 18.1 mph29.1 kmh 29.82 in1009.8 mb 0.00 in0.0 mm 0.00 in0.0 mm 0.04 in1.0 mm
02:55 PM 67.4°F19.7°C 55.2°F12.9°C 65% 15.1 mph W24.3 kmh W 20.2 mph32.5 kmh 29.82 in1009.8 mb 0.00 in0.0 mm 0.00 in0.0 mm 0.04 in1.0 mm
03:00 PM 67.4°F19.7°C 55.2°F12.9°C 65% 14.4 mph W23.2 kmh W 20.2 mph32.5 kmh 29.82 in1009.8 mb 0.00 in0.0 mm 0.00 in0.0 mm 0.04 in1.0 mm
03:05 PM 67.4°F19.7°C 55.2°F12.9°C 65% 13.7 mph W22.0 kmh W 19.3 mph31.1 kmh 29.82 in1009.8 mb 0.00 in0.0 mm 0.00 in0.0 mm 0.04 in1.0 mm
03:10 PM 67.4°F19.7°C 55.2°F12.9°C 65% 14.8 mph W23.8 kmh W 20.5 mph33.0 kmh 29.82 in1009.8 mb 0.00 in0.0 mm 0.00 in0.0 mm 0.04 in1.0 mm
03:15 PM 67.6°F19.8°C 54.9°F12.7°C 64% 13.4 mph W21.6 kmh W 21.1 mph34.0 kmh 29.82 in1009.8 mb 0.00 in0.0 mm 0.00 in0.0 mm 0.04 in1.0 mm
03:20 PM 67.7°F19.8°C 55.5°F13.1°C 65% 14.1 mph W22.7 kmh W 21.1 mph34.0 kmh 29.82 in1009.8 mb 0.00 in0.0 mm 0.00 in0.0 mm 0.04 in1.0 mm
03:25 PM 67.6°F19.8°C 54.9°F12.7°C 64% 13.6 mph W21.9 kmh W 18.7 mph30.1 kmh 29.82 in1009.8 mb 0.00 in0.0 mm 0.00 in0.0 mm 0.04 in1.0 mm
03:30 PM 67.6°F19.8°C 54.9°F12.7°C 64% 13.7 mph W22.0 kmh W 19.3 mph31.1 kmh 29.85 in1010.8 mb 0.00 in0.0 mm 0.00 in0.0 mm 0.04 in1.0 mm
03:35 PM 67.4°F19.7°C 54.8°F12.7°C 64% 12.9 mph WSW20.8 kmh WSW 19.3 mph31.1 kmh 29.85 in1010.8 mb 0.00 in0.0 mm 0.00 in0.0 mm 0.04 in1.0 mm
03:40 PM 67.6°F19.8°C 54.5°F12.5°C 63% 12.4 mph W20.0 kmh W 20.5 mph33.0 kmh 29.85 in1010.8 mb 0.00 in0.0 mm 0.00 in0.0 mm 0.04 in1.0 mm
03:45 PM 67.2°F19.6°C 54.6°F12.6°C 64% 13.9 mph W22.4 kmh W 20.5 mph33.0 kmh 29.85 in1010.8 mb 0.00 in0.0 mm 0.00 in0.0 mm 0.04 in1.0 mm
03:50 PM 67.4°F19.7°C 54.8°F12.7°C 64% 14.2 mph W22.9 kmh W 20.5 mph33.0 kmh 29.85 in1010.8 mb 0.00 in0.0 mm 0.00 in0.0 mm 0.04 in1.0 mm
03:55 PM 67.4°F19.7°C 54.8°F12.7°C 64% 14.5 mph W23.3 kmh W 19.3 mph31.1 kmh 29.85 in1010.8 mb 0.00 in0.0 mm 0.00 in0.0 mm 0.04 in1.0 mm
04:00 PM 67.2°F19.6°C 54.6°F12.6°C 64% 15.3 mph W24.6 kmh W 19.3 mph31.1 kmh 29.85 in1010.8 mb 0.00 in0.0 mm 0.00 in0.0 mm 0.04 in1.0 mm
04:05 PM 67.2°F19.6°C 54.6°F12.6°C 64% 13.6 mph WSW21.9 kmh WSW 16.4 mph26.4 kmh 29.85 in1010.8 mb 0.00 in0.0 mm 0.00 in0.0 mm 0.04 in1.0 mm
04:10 PM 67.2°F19.6°C 54.2°F12.3°C 63% 12.4 mph W20.0 kmh W 17.3 mph27.8 kmh 29.85 in1010.8 mb 0.00 in0.0 mm 0.00 in0.0 mm 0.04 in1.0 mm
04:15 PM 67.0°F19.4°C 54.0°F12.2°C 63% 13.1 mph W21.1 kmh W 17.6 mph28.3 kmh 29.85 in1010.8 mb 0.00 in0.0 mm 0.00 in0.0 mm 0.04 in1.0 mm
04:20 PM 67.4°F19.7°C 54.8°F12.7°C 64% 12.3 mph W19.8 kmh W 17.6 mph28.3 kmh 29.85 in1010.8 mb 0.00 in0.0 mm 0.00 in0.0 mm 0.04 in1.0 mm
04:25 PM 67.4°F19.7°C 54.8°F12.7°C 64% 13.4 mph W21.6 kmh W 20.2 mph32.5 kmh 29.85 in1010.8 mb 0.00 in0.0 mm 0.00 in0.0 mm 0.04 in1.0 mm
04:30 PM 67.4°F19.7°C 54.8°F12.7°C 64% 13.8 mph W22.2 kmh W 20.2 mph32.5 kmh 29.85 in1010.8 mb 0.00 in0.0 mm 0.00 in0.0 mm 0.04 in1.0 mm
04:35 PM 67.6°F19.8°C 54.9°F12.7°C 64% 13.5 mph W21.7 kmh W 21.7 mph34.9 kmh 29.85 in1010.8 mb 0.00 in0.0 mm 0.00 in0.0 mm 0.04 in1.0 mm
04:40 PM 67.4°F19.7°C 54.8°F12.7°C 64% 13.2 mph W21.2 kmh W 22.3 mph35.9 kmh 29.85 in1010.8 mb 0.00 in0.0 mm 0.00 in0.0 mm 0.04 in1.0 mm
04:45 PM 67.2°F19.6°C 54.6°F12.6°C 64% 12.1 mph W19.5 kmh W 22.3 mph35.9 kmh 29.85 in1010.8 mb 0.00 in0.0 mm 0.00 in0.0 mm 0.04 in1.0 mm
04:50 PM 67.0°F19.4°C 54.4°F12.4°C 64% 12.3 mph WSW19.8 kmh WSW 22.3 mph35.9 kmh 29.85 in1010.8 mb 0.00 in0.0 mm 0.00 in0.0 mm 0.04 in1.0 mm
04:55 PM 67.2°F19.6°C 54.6°F12.6°C 64% 11.5 mph W18.5 kmh W 21.7 mph34.9 kmh 29.85 in1010.8 mb 0.00 in0.0 mm 0.00 in0.0 mm 0.04 in1.0 mm
05:00 PM 67.2°F19.6°C 54.6°F12.6°C 64% 11.5 mph W18.5 kmh W 21.7 mph34.9 kmh 29.85 in1010.8 mb 0.00 in0.0 mm 0.00 in0.0 mm 0.04 in1.0 mm
05:05 PM 67.2°F19.6°C 54.2°F12.3°C 63% 11.5 mph W18.5 kmh W 17.6 mph28.3 kmh 29.85 in1010.8 mb 0.00 in0.0 mm 0.00 in0.0 mm 0.04 in1.0 mm
05:10 PM 67.2°F19.6°C 54.2°F12.3°C 63% 11.3 mph W18.2 kmh W 13.7 mph22.0 kmh 29.85 in1010.8 mb 0.00 in0.0 mm 0.00 in0.0 mm 0.04 in1.0 mm
05:15 PM 67.2°F19.6°C 54.2°F12.3°C 63% 12.6 mph W20.3 kmh W 21.7 mph34.9 kmh 29.85 in1010.8 mb 0.00 in0.0 mm 0.00 in0.0 mm 0.04 in1.0 mm
05:20 PM 67.0°F19.4°C 54.0°F12.2°C 63% 13.4 mph W21.6 kmh W 21.7 mph34.9 kmh 29.85 in1010.8 mb 0.00 in0.0 mm 0.00 in0.0 mm 0.04 in1.0 mm
05:25 PM 67.0°F19.4°C 54.0°F12.2°C 63% 12.8 mph W20.6 kmh W 16.4 mph26.4 kmh 29.85 in1010.8 mb 0.00 in0.0 mm 0.00 in0.0 mm 0.04 in1.0 mm
05:30 PM 66.8°F19.3°C 53.8°F12.1°C 63% 13.4 mph WNW21.6 kmh WNW 17.6 mph28.3 kmh 29.88 in1011.9 mb 0.00 in0.0 mm 0.00 in0.0 mm 0.04 in1.0 mm
05:35 PM 67.0°F19.4°C 54.0°F12.2°C 63% 12.7 mph W20.4 kmh W 17.6 mph28.3 kmh 29.88 in1011.9 mb 0.00 in0.0 mm 0.00 in0.0 mm 0.04 in1.0 mm
05:40 PM 66.7°F19.3°C 53.2°F11.8°C 62% 11.4 mph W18.3 kmh W 17.6 mph28.3 kmh 29.88 in1011.9 mb 0.00 in0.0 mm 0.00 in0.0 mm 0.04 in1.0 mm
05:45 PM 66.3°F19.1°C 52.9°F11.6°C 62% 11.8 mph W19.0 kmh W 17.3 mph27.8 kmh 29.88 in1011.9 mb 0.00 in0.0 mm 0.00 in0.0 mm 0.04 in1.0 mm
05:50 PM 65.9°F18.8°C 52.5°F11.4°C 62% 12.8 mph W20.6 kmh W 17.9 mph28.8 kmh 29.88 in1011.9 mb 0.00 in0.0 mm 0.00 in0.0 mm 0.04 in1.0 mm
05:55 PM 65.4°F18.6°C 52.5°F11.4°C 63% 11.6 mph W18.7 kmh W 17.9 mph28.8 kmh 29.88 in1011.9 mb 0.00 in0.0 mm 0.00 in0.0 mm 0.04 in1.0 mm
06:00 PM 64.8°F18.2°C 52.4°F11.3°C 64% 12.2 mph WNW19.6 kmh WNW 22.9 mph36.9 kmh 29.88 in1011.9 mb 0.00 in0.0 mm 0.00 in0.0 mm 0.04 in1.0 mm
06:05 PM 64.8°F18.2°C 52.4°F11.3°C 64% 14.6 mph WNW23.5 kmh WNW 22.9 mph36.9 kmh 29.88 in1011.9 mb 0.00 in0.0 mm 0.00 in0.0 mm 0.04 in1.0 mm
06:10 PM 64.8°F18.2°C 52.4°F11.3°C 64% 15.8 mph W25.4 kmh W 22.9 mph36.9 kmh 29.88 in1011.9 mb 0.00 in0.0 mm 0.00 in0.0 mm 0.04 in1.0 mm
06:15 PM 65.0°F18.3°C 52.6°F11.4°C 64% 13.5 mph WNW21.7 kmh WNW 14.9 mph24.0 kmh 29.88 in1011.9 mb 0.00 in0.0 mm 0.00 in0.0 mm 0.04 in1.0 mm
06:20 PM 65.0°F18.3°C 52.6°F11.4°C 64% 12.6 mph NW20.3 kmh NW 16.1 mph25.9 kmh 29.88 in1011.9 mb 0.00 in0.0 mm 0.00 in0.0 mm 0.04 in1.0 mm
06:25 PM 65.0°F18.3°C 52.6°F11.4°C 64% 12.4 mph WNW20.0 kmh WNW 16.1 mph25.9 kmh 29.88 in1011.9 mb 0.00 in0.0 mm 0.00 in0.0 mm 0.04 in1.0 mm
06:30 PM 65.0°F18.3°C 52.6°F11.4°C 64% 11.3 mph W18.2 kmh W 15.8 mph25.4 kmh 29.88 in1011.9 mb 0.00 in0.0 mm 0.00 in0.0 mm 0.04 in1.0 mm
06:35 PM 64.8°F18.2°C 52.8°F11.6°C 65% 12.2 mph W19.6 kmh W 16.4 mph26.4 kmh 29.88 in1011.9 mb 0.00 in0.0 mm 0.00 in0.0 mm 0.04 in1.0 mm
06:40 PM 64.8°F18.2°C 52.8°F11.6°C 65% 12.5 mph W20.1 kmh W 16.4 mph26.4 kmh 29.88 in1011.9 mb 0.00 in0.0 mm 0.00 in0.0 mm 0.04 in1.0 mm
06:45 PM 64.8°F18.2°C 52.8°F11.6°C 65% 10.1 mph W16.3 kmh W 14.0 mph22.5 kmh 29.91 in1012.9 mb 0.00 in0.0 mm 0.00 in0.0 mm 0.04 in1.0 mm
06:50 PM 64.3°F17.9°C 52.7°F11.5°C 66% 10.4 mph W16.7 kmh W 14.0 mph22.5 kmh 29.91 in1012.9 mb 0.00 in0.0 mm 0.00 in0.0 mm 0.04 in1.0 mm
06:55 PM 64.1°F17.8°C 52.9°F11.6°C 67% 9.6 mph WNW15.4 kmh WNW 17.0 mph27.4 kmh 29.91 in1012.9 mb 0.00 in0.0 mm 0.00 in0.0 mm 0.04 in1.0 mm
07:00 PM 64.1°F17.8°C 52.9°F11.6°C 67% 8.2 mph WNW13.2 kmh WNW 17.0 mph27.4 kmh 29.91 in1012.9 mb 0.00 in0.0 mm 0.00 in0.0 mm 0.04 in1.0 mm
07:05 PM 63.8°F17.7°C 53.0°F11.7°C 68% 8.2 mph NW13.2 kmh NW 14.0 mph22.5 kmh 29.91 in1012.9 mb 0.00 in0.0 mm 0.00 in0.0 mm 0.04 in1.0 mm
07:10 PM 63.6°F17.6°C 52.8°F11.6°C 68% 10.7 mph WNW17.2 kmh WNW 14.3 mph23.0 kmh 29.91 in1012.9 mb 0.00 in0.0 mm 0.00 in0.0 mm 0.04 in1.0 mm
07:15 PM 63.2°F17.3°C 52.5°F11.4°C 68% 12.3 mph W19.8 kmh W 14.6 mph23.5 kmh 29.91 in1012.9 mb 0.00 in0.0 mm 0.00 in0.0 mm 0.04 in1.0 mm
07:20 PM 63.2°F17.3°C 52.5°F11.4°C 68% 11.6 mph WNW18.7 kmh WNW 14.6 mph23.5 kmh 29.91 in1012.9 mb 0.00 in0.0 mm 0.00 in0.0 mm 0.04 in1.0 mm
07:25 PM 63.2°F17.3°C 52.5°F11.4°C 68% 10.7 mph W17.2 kmh W 14.6 mph23.5 kmh 29.91 in1012.9 mb 0.00 in0.0 mm 0.00 in0.0 mm 0.04 in1.0 mm
07:30 PM 62.7°F17.1°C 52.4°F11.3°C 69% 9.9 mph WNW15.9 kmh WNW 13.4 mph21.6 kmh 29.91 in1012.9 mb 0.00 in0.0 mm 0.00 in0.0 mm 0.04 in1.0 mm
07:35 PM 62.7°F17.1°C 52.4°F11.3°C 69% 11.3 mph W18.2 kmh W 14.9 mph24.0 kmh 29.91 in1012.9 mb 0.00 in0.0 mm 0.00 in0.0 mm 0.04 in1.0 mm
07:40 PM 62.3°F16.8°C 52.4°F11.3°C 70% 9.8 mph W15.8 kmh W 14.9 mph24.0 kmh 29.91 in1012.9 mb 0.00 in0.0 mm 0.00 in0.0 mm 0.04 in1.0 mm
07:45 PM 62.3°F16.8°C 52.4°F11.3°C 70% 8.7 mph W14.0 kmh W 16.4 mph26.4 kmh 29.91 in1012.9 mb 0.00 in0.0 mm 0.00 in0.0 mm 0.04 in1.0 mm
07:50 PM 62.0°F16.7°C 52.1°F11.2°C 70% 9.9 mph WSW15.9 kmh WSW 16.4 mph26.4 kmh 29.91 in1012.9 mb 0.00 in0.0 mm 0.00 in0.0 mm 0.04 in1.0 mm
07:55 PM 62.0°F16.7°C 52.1°F11.2°C 70% 10.7 mph WSW17.2 kmh WSW 14.6 mph23.5 kmh 29.91 in1012.9 mb 0.00 in0.0 mm 0.00 in0.0 mm 0.04 in1.0 mm
08:00 PM 61.8°F16.6°C 52.3°F11.3°C 71% 10.5 mph WSW16.9 kmh WSW 14.6 mph23.5 kmh 29.91 in1012.9 mb 0.00 in0.0 mm 0.00 in0.0 mm 0.04 in1.0 mm
08:05 PM 61.8°F16.6°C 52.3°F11.3°C 71% 9.3 mph W15.0 kmh W 13.7 mph22.0 kmh 29.91 in1012.9 mb 0.00 in0.0 mm 0.00 in0.0 mm 0.04 in1.0 mm
08:10 PM 61.6°F16.4°C 52.1°F11.2°C 71% 9.0 mph W14.5 kmh W 12.8 mph20.6 kmh 29.91 in1012.9 mb 0.00 in0.0 mm 0.00 in0.0 mm 0.04 in1.0 mm
08:15 PM 61.4°F16.3°C 51.9°F11.1°C 71% 9.7 mph W15.6 kmh W 13.1 mph21.1 kmh 29.94 in1013.9 mb 0.00 in0.0 mm 0.00 in0.0 mm 0.04 in1.0 mm
08:20 PM 61.4°F16.3°C 52.3°F11.3°C 72% 8.9 mph W14.3 kmh W 13.1 mph21.1 kmh 29.94 in1013.9 mb 0.00 in0.0 mm 0.00 in0.0 mm 0.04 in1.0 mm
08:25 PM 61.3°F16.3°C 52.1°F11.2°C 72% 9.8 mph W15.8 kmh W 14.6 mph23.5 kmh 29.94 in1013.9 mb 0.00 in0.0 mm 0.00 in0.0 mm 0.04 in1.0 mm
08:30 PM 61.3°F16.3°C 52.1°F11.2°C 72% 12.1 mph WNW19.5 kmh WNW 16.7 mph26.9 kmh 29.94 in1013.9 mb 0.00 in0.0 mm 0.00 in0.0 mm 0.04 in1.0 mm
08:35 PM 61.1°F16.2°C 52.0°F11.1°C 72% 11.8 mph WNW19.0 kmh WNW 16.7 mph26.9 kmh 29.94 in1013.9 mb 0.00 in0.0 mm 0.00 in0.0 mm 0.04 in1.0 mm
08:40 PM 61.1°F16.2°C 52.0°F11.1°C 72% 9.6 mph W15.4 kmh W 14.0 mph22.5 kmh 29.94 in1013.9 mb 0.00 in0.0 mm 0.00 in0.0 mm 0.04 in1.0 mm
08:45 PM 61.1°F16.2°C 52.3°F11.3°C 73% 8.7 mph WNW14.0 kmh WNW 11.6 mph18.7 kmh 29.94 in1013.9 mb 0.00 in0.0 mm 0.00 in0.0 mm 0.04 in1.0 mm
08:50 PM 60.9°F16.1°C 52.2°F11.2°C 73% 8.8 mph W14.2 kmh W 11.6 mph18.7 kmh 29.94 in1013.9 mb 0.00 in0.0 mm 0.00 in0.0 mm 0.04 in1.0 mm
08:55 PM 60.9°F16.1°C 52.2°F11.2°C 73% 8.3 mph W13.4 kmh W 11.3 mph18.2 kmh 29.94 in1013.9 mb 0.00 in0.0 mm 0.00 in0.0 mm 0.04 in1.0 mm
09:00 PM 60.7°F15.9°C 52.0°F11.1°C 73% 8.5 mph W13.7 kmh W 11.3 mph18.2 kmh 29.94 in1013.9 mb 0.00 in0.0 mm 0.00 in0.0 mm 0.04 in1.0 mm
09:05 PM 60.7°F15.9°C 52.4°F11.3°C 74% 10.4 mph W16.7 kmh W 16.4 mph26.4 kmh 29.94 in1013.9 mb 0.00 in0.0 mm 0.00 in0.0 mm 0.04 in1.0 mm
09:10 PM 60.7°F15.9°C 52.4°F11.3°C 74% 10.5 mph W16.9 kmh W 16.4 mph26.4 kmh 29.94 in1013.9 mb 0.00 in0.0 mm 0.00 in0.0 mm 0.04 in1.0 mm
09:15 PM 60.5°F15.8°C 52.2°F11.2°C 74% 9.7 mph W15.6 kmh W 14.6 mph23.5 kmh 29.94 in1013.9 mb 0.00 in0.0 mm 0.00 in0.0 mm 0.04 in1.0 mm
09:20 PM 60.5°F15.8°C 52.2°F11.2°C 74% 10.3 mph WNW16.6 kmh WNW 14.3 mph23.0 kmh 29.94 in1013.9 mb 0.00 in0.0 mm 0.00 in0.0 mm 0.04 in1.0 mm
09:25 PM 60.5°F15.8°C 51.8°F11.0°C 73% 9.2 mph WNW14.8 kmh WNW 14.3 mph23.0 kmh 29.94 in1013.9 mb 0.00 in0.0 mm 0.00 in0.0 mm 0.04 in1.0 mm
09:30 PM 60.3°F15.7°C 51.7°F10.9°C 73% 7.9 mph W12.7 kmh W 14.3 mph23.0 kmh 29.94 in1013.9 mb 0.00 in0.0 mm 0.00 in0.0 mm 0.04 in1.0 mm
09:35 PM 60.3°F15.7°C 51.7°F10.9°C 73% 7.8 mph WNW12.6 kmh WNW 11.6 mph18.7 kmh 29.94 in1013.9 mb 0.00 in0.0 mm 0.00 in0.0 mm 0.04 in1.0 mm
09:40 PM 60.3°F15.7°C 52.0°F11.1°C 74% 7.4 mph WNW11.9 kmh WNW 11.6 mph18.7 kmh 29.94 in1013.9 mb 0.00 in0.0 mm 0.00 in0.0 mm 0.04 in1.0 mm
09:45 PM 60.3°F15.7°C 52.0°F11.1°C 74% 8.5 mph WNW13.7 kmh WNW 13.4 mph21.6 kmh 29.94 in1013.9 mb 0.00 in0.0 mm 0.00 in0.0 mm 0.04 in1.0 mm
09:50 PM 60.3°F15.7°C 52.0°F11.1°C 74% 9.9 mph WNW15.9 kmh WNW 13.4 mph21.6 kmh 29.94 in1013.9 mb 0.00 in0.0 mm 0.00 in0.0 mm 0.04 in1.0 mm
09:55 PM 60.3°F15.7°C 52.0°F11.1°C 74% 8.2 mph W13.2 kmh W 11.3 mph18.2 kmh 29.94 in1013.9 mb 0.00 in0.0 mm 0.00 in0.0 mm 0.04 in1.0 mm
10:00 PM 60.3°F15.7°C 52.0°F11.1°C 74% 7.3 mph W11.7 kmh W 10.1 mph16.3 kmh 29.97 in1014.9 mb 0.00 in0.0 mm 0.00 in0.0 mm 0.04 in1.0 mm
10:05 PM 60.3°F15.7°C 52.0°F11.1°C 74% 7.2 mph WNW11.6 kmh WNW 10.1 mph16.3 kmh 29.97 in1014.9 mb 0.00 in0.0 mm 0.00 in0.0 mm 0.04 in1.0 mm
10:10 PM 60.3°F15.7°C 52.4°F11.3°C 75% 6.6 mph WNW10.6 kmh WNW 11.6 mph18.7 kmh 29.97 in1014.9 mb 0.00 in0.0 mm 0.00 in0.0 mm 0.04 in1.0 mm
10:15 PM 60.2°F15.7°C 52.2°F11.2°C 75% 6.6 mph WNW10.6 kmh WNW 11.6 mph18.7 kmh 29.97 in1014.9 mb 0.00 in0.0 mm 0.00 in0.0 mm 0.04 in1.0 mm
10:20 PM 60.2°F15.7°C 52.2°F11.2°C 75% 7.0 mph W11.3 kmh W 11.3 mph18.2 kmh 29.97 in1014.9 mb 0.00 in0.0 mm 0.00 in0.0 mm 0.04 in1.0 mm
10:25 PM 60.2°F15.7°C 52.2°F11.2°C 75% 7.4 mph WNW11.9 kmh WNW 11.3 mph18.2 kmh 29.97 in1014.9 mb 0.00 in0.0 mm 0.00 in0.0 mm 0.04 in1.0 mm
10:30 PM 60.2°F15.7°C 52.6°F11.4°C 76% 6.8 mph WNW10.9 kmh WNW 10.4 mph16.7 kmh 29.97 in1014.9 mb 0.00 in0.0 mm 0.00 in0.0 mm 0.04 in1.0 mm
10:35 PM 60.0°F15.6°C 52.4°F11.3°C 76% 6.2 mph WNW10.0 kmh WNW 10.4 mph16.7 kmh 29.97 in1014.9 mb 0.00 in0.0 mm 0.00 in0.0 mm 0.04 in1.0 mm
10:40 PM 60.0°F15.6°C 52.4°F11.3°C 76% 6.5 mph W10.5 kmh W 11.3 mph18.2 kmh 29.97 in1014.9 mb 0.00 in0.0 mm 0.00 in0.0 mm 0.04 in1.0 mm
10:45 PM 60.0°F15.6°C 52.8°F11.6°C 77% 6.1 mph W9.8 kmh W 11.3 mph18.2 kmh 30.00 in1015.9 mb 0.00 in0.0 mm 0.00 in0.0 mm 0.04 in1.0 mm
10:50 PM 60.0°F15.6°C 52.8°F11.6°C 77% 5.7 mph WNW9.2 kmh WNW 9.2 mph14.8 kmh 30.00 in1015.9 mb 0.00 in0.0 mm 0.00 in0.0 mm 0.04 in1.0 mm
10:55 PM 59.8°F15.4°C 52.6°F11.4°C 77% 6.7 mph WNW10.8 kmh WNW 11.6 mph18.7 kmh 30.00 in1015.9 mb 0.00 in0.0 mm 0.00 in0.0 mm 0.04 in1.0 mm
11:00 PM 59.8°F15.4°C 52.6°F11.4°C 77% 6.1 mph WNW9.8 kmh WNW 11.6 mph18.7 kmh 29.97 in1014.9 mb 0.00 in0.0 mm 0.00 in0.0 mm 0.04 in1.0 mm
11:05 PM 59.8°F15.4°C 52.6°F11.4°C 77% 6.8 mph WNW10.9 kmh WNW 10.7 mph17.2 kmh 29.97 in1014.9 mb 0.00 in0.0 mm 0.00 in0.0 mm 0.04 in1.0 mm
11:10 PM 59.8°F15.4°C 52.9°F11.6°C 78% 6.5 mph NW10.5 kmh NW 10.7 mph17.2 kmh 29.97 in1014.9 mb 0.00 in0.0 mm 0.00 in0.0 mm 0.04 in1.0 mm
11:15 PM 59.8°F15.4°C 52.9°F11.6°C 78% 5.6 mph NW9.0 kmh NW 7.7 mph12.4 kmh 29.97 in1014.9 mb 0.00 in0.0 mm 0.00 in0.0 mm 0.04 in1.0 mm
11:20 PM 59.8°F15.4°C 52.9°F11.6°C 78% 6.2 mph W10.0 kmh W 7.7 mph12.4 kmh 29.97 in1014.9 mb 0.00 in0.0 mm 0.00 in0.0 mm 0.04 in1.0 mm
11:25 PM 59.8°F15.4°C 52.9°F11.6°C 78% 5.9 mph WNW9.5 kmh WNW 7.1 mph11.4 kmh 29.97 in1014.9 mb 0.00 in0.0 mm 0.00 in0.0 mm 0.04 in1.0 mm
11:30 PM 59.8°F15.4°C 52.9°F11.6°C 78% 6.4 mph WNW10.3 kmh WNW 9.5 mph15.3 kmh 29.97 in1014.9 mb 0.00 in0.0 mm 0.00 in0.0 mm 0.04 in1.0 mm
11:35 PM 59.8°F15.4°C 52.9°F11.6°C 78% 7.2 mph W11.6 kmh W 9.5 mph15.3 kmh 29.97 in1014.9 mb 0.00 in0.0 mm 0.00 in0.0 mm 0.04 in1.0 mm
11:40 PM 60.0°F15.6°C 53.5°F11.9°C 79% 5.2 mph W8.4 kmh W 8.0 mph12.9 kmh 29.97 in1014.9 mb 0.00 in0.0 mm 0.00 in0.0 mm 0.04 in1.0 mm
11:45 PM 60.0°F15.6°C 53.5°F11.9°C 79% 4.6 mph W7.4 kmh W 10.4 mph16.7 kmh 29.97 in1014.9 mb 0.00 in0.0 mm 0.00 in0.0 mm 0.04 in1.0 mm
11:50 PM 60.0°F15.6°C 53.5°F11.9°C 79% 6.1 mph WNW9.8 kmh WNW 10.4 mph16.7 kmh 29.97 in1014.9 mb 0.00 in0.0 mm 0.00 in0.0 mm 0.04 in1.0 mm
11:55 PM 60.2°F15.7°C 53.6°F12.0°C 79% 6.7 mph WNW10.8 kmh WNW 8.9 mph14.3 kmh 29.97 in1014.9 mb 0.00 in0.0 mm 0.00 in0.0 mm 0.04 in1.0 mm